Terminal Aerodrome Forecast
Issued by NWS Tuscon, AZ

Home | Current Version | Previous Version | Text Only | Print | Product List | Glossary On
Versions: 1 2 3 4 5 6 7 8 9 10
000
FTUS45 KTWC 281700
TAFDUG
TAF
KDUG 281729Z 2818/2918 VRB03KT P6SM SCT200
     FM282100 23003KT P6SM BKN200
     FM290100 34005KT P6SM BKN200
     FM290600 VRB03KT P6SM SCT200=

USA.gov is the U.S. government's official web portal to all federal, state and local government web resources and services.